Time;durP1;ratioP1;P1;durP2;ratioP2;P2;SDS_P1;SDS_P2;PMS_P1;PMS_P2;Temp;Humidity;BMP_temperature;BMP_pressure;BME280_temperature;BME280_humidity;BME280_pressure;Samples;Min_cycle;Max_cycle;Signal;HPM_P1;HPM_P2
2024/01/29 00:00:49;;;;;;;2.13;1.80;;;;;;;;;;5099533;28;20250;-65
2024/01/29 00:03:16;;;;;;;2.00;1.77;;;;;;;;;;5099481;28;20208;-65
2024/01/29 00:05:44;;;;;;;1.85;1.67;;;;;;;;;;5109777;28;20303;-65
2024/01/29 00:08:13;;;;;;;2.15;1.95;;;;;;;;;;5120043;28;20203;-65
2024/01/29 00:10:40;;;;;;;1.80;1.60;;;;;;;;;;5120508;28;20201;-65
2024/01/29 00:13:09;;;;;;;1.77;1.58;;;;;;;;;;5120378;28;20484;-65
2024/01/29 00:15:36;;;;;;;1.67;1.58;;;;;;;;;;5120048;28;20203;-65
2024/01/29 00:18:04;;;;;;;1.85;1.70;;;;;;;;;;5119837;28;20264;-65
2024/01/29 00:20:31;;;;;;;2.00;1.75;;;;;;;;;;5119712;28;20285;-65
2024/01/29 00:22:59;;;;;;;2.00;1.77;;;;;;;;;;5120389;28;20209;-65
2024/01/29 00:25:28;;;;;;;1.67;1.50;;;;;;;;;;5119766;28;20275;-65
2024/01/29 00:27:55;;;;;;;1.65;1.55;;;;;;;;;;5119787;28;20203;-65
2024/01/29 00:30:23;;;;;;;1.60;1.50;;;;;;;;;;5119395;28;20211;-65
2024/01/29 00:32:51;;;;;;;1.80;1.55;;;;;;;;;;5120422;28;20260;-65
2024/01/29 00:35:18;;;;;;;2.17;1.48;;;;;;;;;;5119499;28;20199;-65
2024/01/29 00:37:48;;;;;;;2.08;1.80;;;;;;;;;;5119569;28;20211;-65
2024/01/29 00:40:17;;;;;;;1.95;1.70;;;;;;;;;;5119578;28;20203;-65
2024/01/29 00:42:46;;;;;;;1.80;1.70;;;;;;;;;;5118848;28;20586;-65
2024/01/29 00:45:14;;;;;;;2.20;2.00;;;;;;;;;;5119639;28;20261;-65
2024/01/29 00:47:41;;;;;;;2.05;1.80;;;;;;;;;;5119578;28;20271;-65
2024/01/29 00:50:09;;;;;;;1.88;1.77;;;;;;;;;;5118846;28;20581;-65
2024/01/29 00:52:37;;;;;;;2.42;1.85;;;;;;;;;;5119266;28;20485;-65
2024/01/29 00:55:04;;;;;;;1.80;1.70;;;;;;;;;;5119295;28;20207;-65
2024/01/29 00:57:32;;;;;;;1.75;1.50;;;;;;;;;;5119199;28;20609;-65
2024/01/29 01:00:01;;;;;;;1.75;1.50;;;;;;;;;;5118681;28;20203;-65
2024/01/29 01:02:28;;;;;;;1.70;1.52;;;;;;;;;;5118326;28;20210;-65
2024/01/29 01:04:56;;;;;;;1.70;1.60;;;;;;;;;;5119281;28;20494;-65
2024/01/29 01:07:24;;;;;;;1.63;1.52;;;;;;;;;;5119151;28;20236;-65
2024/01/29 01:09:51;;;;;;;1.77;1.67;;;;;;;;;;5118999;28;20531;-65
2024/01/29 01:12:19;;;;;;;2.17;1.77;;;;;;;;;;5118920;28;20203;-65
2024/01/29 01:14:46;;;;;;;2.28;1.90;;;;;;;;;;5118957;28;20293;-65
2024/01/29 01:17:15;;;;;;;1.80;1.70;;;;;;;;;;5119124;28;20203;-65
2024/01/29 01:19:43;;;;;;;2.17;1.80;;;;;;;;;;5118131;28;20207;-65
2024/01/29 01:22:12;;;;;;;1.60;1.40;;;;;;;;;;5118873;28;20210;-65
2024/01/29 01:24:39;;;;;;;1.60;1.50;;;;;;;;;;5118807;28;20234;-65
2024/01/29 01:27:06;;;;;;;2.10;1.80;;;;;;;;;;5118986;28;20564;-65
2024/01/29 01:29:34;;;;;;;1.83;1.73;;;;;;;;;;5119174;28;20214;-65
2024/01/29 01:32:02;;;;;;;1.83;1.73;;;;;;;;;;5118542;28;20782;-65
2024/01/29 01:34:30;;;;;;;2.03;1.60;;;;;;;;;;5118277;28;20206;-65
2024/01/29 01:36:58;;;;;;;1.60;1.50;;;;;;;;;;5118694;28;20203;-66
2024/01/29 01:39:25;;;;;;;1.90;1.70;;;;;;;;;;5118753;28;20463;-65
2024/01/29 01:41:53;;;;;;;2.83;1.55;;;;;;;;;;5118579;28;20195;-65
2024/01/29 01:44:20;;;;;;;1.67;1.58;;;;;;;;;;5118780;28;20226;-65
2024/01/29 01:46:48;;;;;;;1.98;1.70;;;;;;;;;;5118340;28;20221;-65
2024/01/29 01:49:16;;;;;;;2.05;1.60;;;;;;;;;;5118854;28;20502;-66
2024/01/29 01:51:46;;;;;;;1.92;1.73;;;;;;;;;;5118518;28;20203;-65
2024/01/29 01:54:14;;;;;;;2.60;1.67;;;;;;;;;;5118280;28;20246;-65
2024/01/29 01:56:42;;;;;;;1.60;1.45;;;;;;;;;;5118534;28;20235;-64
2024/01/29 01:59:13;;;;;;;1.80;1.60;;;;;;;;;;5118216;28;20289;-65
2024/01/29 02:01:41;;;;;;;1.95;1.70;;;;;;;;;;5118605;28;20246;-64
2024/01/29 02:04:09;;;;;;;2.72;1.80;;;;;;;;;;5118052;28;20223;-64
2024/01/29 02:06:36;;;;;;;2.05;1.73;;;;;;;;;;5118431;28;20211;-64
2024/01/29 02:09:05;;;;;;;3.30;1.50;;;;;;;;;;5118478;28;20488;-64
2024/01/29 02:11:33;;;;;;;2.40;1.70;;;;;;;;;;5118881;28;20234;-64
2024/01/29 02:14:00;;;;;;;2.05;1.60;;;;;;;;;;5110216;28;20486;-65
2024/01/29 02:16:28;;;;;;;2.45;1.85;;;;;;;;;;5118735;28;20499;-64
2024/01/29 02:18:55;;;;;;;2.95;1.63;;;;;;;;;;5118507;28;20222;-64
2024/01/29 02:21:22;;;;;;;1.50;1.40;;;;;;;;;;5118144;28;20210;-64
2024/01/29 02:23:51;;;;;;;2.30;1.70;;;;;;;;;;5117826;28;20203;-65
2024/01/29 02:26:19;;;;;;;2.17;1.73;;;;;;;;;;5118332;28;20217;-65
2024/01/29 02:28:46;;;;;;;2.03;1.88;;;;;;;;;;5118121;28;20211;-64
2024/01/29 02:31:14;;;;;;;1.58;1.48;;;;;;;;;;5118035;28;20483;-65
2024/01/29 02:33:41;;;;;;;1.70;1.60;;;;;;;;;;5118167;28;20207;-65
2024/01/29 02:36:09;;;;;;;2.28;1.75;;;;;;;;;;5118316;28;20210;-66
2024/01/29 02:38:37;;;;;;;1.80;1.70;;;;;;;;;;5118038;28;20564;-64
2024/01/29 02:41:06;;;;;;;1.80;1.70;;;;;;;;;;5118221;28;20302;-64
2024/01/29 02:43:33;;;;;;;2.22;1.73;;;;;;;;;;5118255;28;20230;-64
2024/01/29 02:46:01;;;;;;;1.60;1.50;;;;;;;;;;5109962;28;20227;-64
2024/01/29 02:48:28;;;;;;;1.73;1.60;;;;;;;;;;5118462;28;20215;-64
2024/01/29 02:50:56;;;;;;;2.10;1.90;;;;;;;;;;5118444;28;20246;-65
2024/01/29 02:53:23;;;;;;;1.95;1.75;;;;;;;;;;5117774;28;20225;-64
2024/01/29 02:55:51;;;;;;;1.95;1.70;;;;;;;;;;5118118;28;20200;-64
2024/01/29 02:58:19;;;;;;;2.10;1.77;;;;;;;;;;5117504;28;20203;-66
2024/01/29 03:00:47;;;;;;;1.65;1.55;;;;;;;;;;5118071;28;20217;-65
2024/01/29 03:03:14;;;;;;;1.88;1.77;;;;;;;;;;5117991;28;20203;-65
2024/01/29 03:05:41;;;;;;;2.05;1.85;;;;;;;;;;5119649;28;20231;-65
2024/01/29 03:08:09;;;;;;;2.22;1.67;;;;;;;;;;5121221;28;20202;-65
2024/01/29 03:10:36;;;;;;;1.67;1.58;;;;;;;;;;5121564;28;20206;-65
2024/01/29 03:13:04;;;;;;;1.77;1.60;;;;;;;;;;5121296;28;20214;-65
2024/01/29 03:15:33;;;;;;;1.80;1.70;;;;;;;;;;5120710;28;20206;-65
2024/01/29 03:18:00;;;;;;;2.40;1.70;;;;;;;;;;5113470;28;20210;-65
2024/01/29 03:20:28;;;;;;;1.92;1.75;;;;;;;;;;5121100;28;20289;-64
2024/01/29 03:22:55;;;;;;;2.22;2.03;;;;;;;;;;5120902;28;20586;-64
2024/01/29 03:25:22;;;;;;;1.75;1.60;;;;;;;;;;5121059;28;20227;-64
2024/01/29 03:27:50;;;;;;;2.35;2.00;;;;;;;;;;5120771;28;20463;-66
2024/01/29 03:30:17;;;;;;;2.00;1.75;;;;;;;;;;5121094;28;20203;-66
2024/01/29 03:32:48;;;;;;;2.13;1.80;;;;;;;;;;5121133;28;20209;-65
2024/01/29 03:35:16;;;;;;;1.70;1.60;;;;;;;;;;5121439;28;20199;-64
2024/01/29 03:37:45;;;;;;;2.35;1.88;;;;;;;;;;5120752;28;20211;-65
2024/01/29 03:40:13;;;;;;;1.88;1.60;;;;;;;;;;5121095;28;20203;-65
2024/01/29 03:42:40;;;;;;;1.92;1.73;;;;;;;;;;5120926;28;20496;-65
2024/01/29 03:45:07;;;;;;;2.38;1.70;;;;;;;;;;5120914;28;20250;-65
2024/01/29 03:47:35;;;;;;;2.03;1.80;;;;;;;;;;5120566;28;20203;-65
2024/01/29 03:50:05;;;;;;;1.90;1.65;;;;;;;;;;5120413;28;20203;-65
2024/01/29 03:52:32;;;;;;;2.10;1.90;;;;;;;;;;5120150;28;20203;-65
2024/01/29 03:55:00;;;;;;;1.80;1.52;;;;;;;;;;5119958;28;20199;-65
2024/01/29 03:57:27;;;;;;;1.90;1.80;;;;;;;;;;5120548;28;20575;-65
2024/01/29 03:59:56;;;;;;;1.77;1.67;;;;;;;;;;5120442;28;20213;-65
2024/01/29 04:02:24;;;;;;;1.88;1.77;;;;;;;;;;5120220;28;20203;-65
2024/01/29 04:04:51;;;;;;;1.90;1.80;;;;;;;;;;5119985;28;20490;-65
2024/01/29 04:07:20;;;;;;;2.00;1.80;;;;;;;;;;5120405;28;20218;-65
2024/01/29 04:09:47;;;;;;;1.92;1.73;;;;;;;;;;5119876;28;20214;-65
2024/01/29 04:12:14;;;;;;;2.00;1.80;;;;;;;;;;5120567;28;20250;-65
2024/01/29 04:14:42;;;;;;;2.33;2.13;;;;;;;;;;5120087;28;20206;-64
2024/01/29 04:17:12;;;;;;;1.70;1.60;;;;;;;;;;5118927;28;20203;-65
2024/01/29 04:19:39;;;;;;;2.42;1.80;;;;;;;;;;5119883;28;20211;-65
2024/01/29 04:22:07;;;;;;;2.08;1.88;;;;;;;;;;5119935;28;20211;-65
2024/01/29 04:24:36;;;;;;;1.70;1.60;;;;;;;;;;5119488;28;20542;-65
2024/01/29 04:27:03;;;;;;;1.70;1.60;;;;;;;;;;5119769;28;20242;-65
2024/01/29 04:29:31;;;;;;;1.98;1.85;;;;;;;;;;5119422;28;20203;-65
2024/01/29 04:31:58;;;;;;;2.53;1.73;;;;;;;;;;5119220;28;20599;-65
2024/01/29 04:34:26;;;;;;;1.98;1.80;;;;;;;;;;5119380;28;20302;-65
2024/01/29 04:36:53;;;;;;;1.80;1.70;;;;;;;;;;5119674;28;20213;-65
2024/01/29 04:39:21;;;;;;;1.92;1.80;;;;;;;;;;5118866;28;20207;-65
2024/01/29 04:41:49;;;;;;;2.00;1.80;;;;;;;;;;5119099;28;20206;-65
2024/01/29 04:44:17;;;;;;;2.05;1.83;;;;;;;;;;5118602;28;20203;-64
2024/01/29 04:46:44;;;;;;;1.83;1.63;;;;;;;;;;5118944;28;20234;-65
2024/01/29 04:49:11;;;;;;;2.13;1.88;;;;;;;;;;5119113;28;20203;-65
2024/01/29 04:51:39;;;;;;;1.90;1.75;;;;;;;;;;5119836;28;20206;-65
2024/01/29 04:54:07;;;;;;;2.15;2.00;;;;;;;;;;5118764;28;20218;-65
2024/01/29 04:56:34;;;;;;;2.13;1.75;;;;;;;;;;5119013;28;20205;-65
2024/01/29 04:59:03;;;;;;;1.80;1.70;;;;;;;;;;5119554;28;20492;-65
2024/01/29 05:01:30;;;;;;;1.83;1.63;;;;;;;;;;5119209;28;20203;-65
2024/01/29 05:03:58;;;;;;;1.65;1.55;;;;;;;;;;5119219;28;20492;-65
2024/01/29 05:06:25;;;;;;;1.80;1.70;;;;;;;;;;5097786;28;20226;-65
2024/01/29 05:08:53;;;;;;;2.22;2.03;;;;;;;;;;5097819;28;20493;-65
2024/01/29 05:11:20;;;;;;;1.85;1.75;;;;;;;;;;5097873;28;20210;-65
2024/01/29 05:13:48;;;;;;;1.80;1.60;;;;;;;;;;5098453;28;20490;-65
2024/01/29 05:16:17;;;;;;;1.92;1.50;;;;;;;;;;5098241;28;20222;-65
2024/01/29 05:18:44;;;;;;;2.08;1.88;;;;;;;;;;5098266;28;20204;-65
2024/01/29 05:21:12;;;;;;;2.00;1.55;;;;;;;;;;5097511;28;20204;-65
2024/01/29 05:23:40;;;;;;;1.70;1.60;;;;;;;;;;5097601;28;20203;-65
2024/01/29 05:26:08;;;;;;;1.85;1.75;;;;;;;;;;5097329;28;20234;-65
2024/01/29 05:28:35;;;;;;;2.25;1.67;;;;;;;;;;5097201;28;20204;-65
2024/01/29 05:31:02;;;;;;;1.77;1.60;;;;;;;;;;5097053;28;20485;-65
2024/01/29 05:33:31;;;;;;;1.73;1.63;;;;;;;;;;5097741;28;20208;-65
2024/01/29 05:35:58;;;;;;;2.20;2.00;;;;;;;;;;5097716;28;20199;-65
2024/01/29 05:38:26;;;;;;;1.75;1.65;;;;;;;;;;5097304;28;20207;-65
2024/01/29 05:40:53;;;;;;;1.80;1.70;;;;;;;;;;5097429;28;20203;-65
2024/01/29 05:43:20;;;;;;;1.95;1.80;;;;;;;;;;5097490;28;20268;-65
2024/01/29 05:45:48;;;;;;;1.73;1.55;;;;;;;;;;5097541;28;20235;-65
2024/01/29 05:48:15;;;;;;;1.88;1.77;;;;;;;;;;5097004;28;20211;-65
2024/01/29 05:50:44;;;;;;;1.88;1.77;;;;;;;;;;5096212;28;20218;-65
2024/01/29 05:53:12;;;;;;;1.80;1.70;;;;;;;;;;5096765;28;20218;-64
2024/01/29 05:55:39;;;;;;;1.98;1.63;;;;;;;;;;5095962;28;20200;-64
2024/01/29 05:58:07;;;;;;;1.75;1.60;;;;;;;;;;5095676;28;20222;-65
2024/01/29 06:00:34;;;;;;;1.75;1.65;;;;;;;;;;5095250;28;20587;-65
2024/01/29 06:03:01;;;;;;;1.70;1.60;;;;;;;;;;5095757;28;20480;-65
2024/01/29 06:05:29;;;;;;;2.10;1.75;;;;;;;;;;5095078;27;20235;-65
2024/01/29 06:07:57;;;;;;;1.70;1.60;;;;;;;;;;5095669;28;20204;-65
2024/01/29 06:10:25;;;;;;;1.95;1.75;;;;;;;;;;5096314;28;20207;-64
2024/01/29 06:12:53;;;;;;;1.85;1.75;;;;;;;;;;5095655;28;20203;-65
2024/01/29 06:15:19;;;;;;;2.00;1.80;;;;;;;;;;5096286;28;20575;-65
2024/01/29 06:17:47;;;;;;;1.70;1.60;;;;;;;;;;5096066;28;20265;-64
2024/01/29 06:20:14;;;;;;;1.60;1.50;;;;;;;;;;5094704;28;20467;-65
2024/01/29 06:22:42;;;;;;;1.70;1.60;;;;;;;;;;5095890;28;20242;-65
2024/01/29 06:25:11;;;;;;;1.80;1.70;;;;;;;;;;5096187;28;20215;-65
2024/01/29 06:27:38;;;;;;;2.00;1.80;;;;;;;;;;5096524;28;20204;-65
2024/01/29 06:30:06;;;;;;;2.08;1.88;;;;;;;;;;5095914;28;20204;-65
2024/01/29 06:32:33;;;;;;;1.70;1.60;;;;;;;;;;5094899;28;20200;-65
2024/01/29 06:35:00;;;;;;;3.15;2.08;;;;;;;;;;5096271;28;20203;-65
2024/01/29 06:37:28;;;;;;;3.05;2.25;;;;;;;;;;5095661;28;20207;-64
2024/01/29 06:39:55;;;;;;;2.70;2.22;;;;;;;;;;5098454;28;20214;-64
2024/01/29 06:42:24;;;;;;;4.00;2.45;;;;;;;;;;5119556;28;20203;-64
2024/01/29 06:44:51;;;;;;;4.53;2.60;;;;;;;;;;5119897;28;20214;-66
2024/01/29 06:47:19;;;;;;;4.07;2.45;;;;;;;;;;5119928;28;20656;-64
2024/01/29 06:49:47;;;;;;;4.55;2.75;;;;;;;;;;5120253;28;20272;-65
2024/01/29 06:52:14;;;;;;;5.85;3.40;;;;;;;;;;5119622;28;20559;-64
2024/01/29 06:54:41;;;;;;;5.22;3.05;;;;;;;;;;5119285;28;20194;-65
2024/01/29 06:57:09;;;;;;;5.03;2.85;;;;;;;;;;5119147;28;20209;-65
2024/01/29 06:59:38;;;;;;;5.00;3.05;;;;;;;;;;5118865;28;20203;-65
2024/01/29 07:02:06;;;;;;;5.35;3.20;;;;;;;;;;5119488;28;20207;-65
2024/01/29 07:04:33;;;;;;;5.85;3.78;;;;;;;;;;5124540;27;20305;-65
2024/01/29 07:07:01;;;;;;;7.07;3.00;;;;;;;;;;5140700;27;20226;-65
2024/01/29 07:09:30;;;;;;;5.70;3.17;;;;;;;;;;5139710;27;20232;-65
2024/01/29 07:11:58;;;;;;;5.28;3.20;;;;;;;;;;5139267;27;20202;-66
2024/01/29 07:14:25;;;;;;;8.65;3.92;;;;;;;;;;5139348;27;20214;-65
2024/01/29 07:16:54;;;;;;;5.80;3.50;;;;;;;;;;5137963;27;20214;-65
2024/01/29 07:19:23;;;;;;;5.78;3.22;;;;;;;;;;5138932;27;20233;-65
2024/01/29 07:21:50;;;;;;;7.65;3.30;;;;;;;;;;5139306;27;20213;-65
2024/01/29 07:24:18;;;;;;;7.90;3.90;;;;;;;;;;5138726;27;20226;-65
2024/01/29 07:26:46;;;;;;;7.43;3.40;;;;;;;;;;5138869;27;20639;-65
2024/01/29 07:29:13;;;;;;;6.15;3.38;;;;;;;;;;5139083;27;20559;-65
2024/01/29 07:31:41;;;;;;;6.57;3.53;;;;;;;;;;5139543;27;20568;-65
2024/01/29 07:34:09;;;;;;;7.07;3.60;;;;;;;;;;5138954;27;20207;-65
2024/01/29 07:36:38;;;;;;;6.45;3.45;;;;;;;;;;5139032;27;20218;-65
2024/01/29 07:39:06;;;;;;;5.47;3.03;;;;;;;;;;5138915;27;20263;-65
2024/01/29 07:41:33;;;;;;;7.03;3.63;;;;;;;;;;5138697;27;20216;-65
2024/01/29 07:44:01;;;;;;;6.95;3.40;;;;;;;;;;5138214;27;20479;-65
2024/01/29 07:46:28;;;;;;;6.55;3.72;;;;;;;;;;5138085;27;20233;-65
2024/01/29 07:48:56;;;;;;;5.10;3.40;;;;;;;;;;5138507;27;20309;-65
2024/01/29 07:51:24;;;;;;;4.72;2.92;;;;;;;;;;5137937;27;20202;-65
2024/01/29 07:53:52;;;;;;;6.50;3.30;;;;;;;;;;5138359;27;20194;-65
2024/01/29 07:56:19;;;;;;;6.50;3.67;;;;;;;;;;5138314;27;20500;-65
2024/01/29 07:58:46;;;;;;;7.93;3.55;;;;;;;;;;5138824;27;20206;-65
2024/01/29 08:01:16;;;;;;;6.78;3.50;;;;;;;;;;5138207;27;20473;-65
2024/01/29 08:03:44;;;;;;;6.03;3.50;;;;;;;;;;5138649;27;20229;-65
2024/01/29 08:06:12;;;;;;;5.22;3.17;;;;;;;;;;5138111;27;20233;-64
2024/01/29 08:08:41;;;;;;;7.38;3.70;;;;;;;;;;5139142;27;20531;-66
2024/01/29 08:11:08;;;;;;;4.97;3.08;;;;;;;;;;5137906;27;20199;-64
2024/01/29 08:13:36;;;;;;;7.03;3.75;;;;;;;;;;5138137;27;20237;-65
2024/01/29 08:16:03;;;;;;;5.80;3.70;;;;;;;;;;5137819;27;20685;-64
2024/01/29 08:18:31;;;;;;;5.72;3.25;;;;;;;;;;5139014;27;20202;-65
2024/01/29 08:20:58;;;;;;;5.32;3.80;;;;;;;;;;5137958;27;20305;-65
2024/01/29 08:23:26;;;;;;;5.28;3.22;;;;;;;;;;5137790;27;20198;-65
2024/01/29 08:25:57;;;;;;;6.60;3.60;;;;;;;;;;5137555;27;20309;-65
2024/01/29 08:28:24;;;;;;;5.90;3.20;;;;;;;;;;5138174;27;20564;-65
2024/01/29 08:30:54;;;;;;;5.30;3.40;;;;;;;;;;5137900;27;20214;-65
2024/01/29 08:33:21;;;;;;;4.53;3.50;;;;;;;;;;5137224;27;20669;-65
2024/01/29 08:35:49;;;;;;;6.00;3.22;;;;;;;;;;5137375;27;20202;-65
2024/01/29 08:38:16;;;;;;;5.95;3.33;;;;;;;;;;5137244;27;20202;-65
2024/01/29 08:40:43;;;;;;;4.05;3.08;;;;;;;;;;5137468;27;20306;-65
2024/01/29 08:43:12;;;;;;;6.97;3.60;;;;;;;;;;5137210;27;20202;-65
2024/01/29 08:45:40;;;;;;;4.72;3.40;;;;;;;;;;5137210;27;20202;-65
2024/01/29 08:48:07;;;;;;;6.50;3.55;;;;;;;;;;5136978;27;20261;-65
2024/01/29 08:50:35;;;;;;;5.18;3.40;;;;;;;;;;5137914;27;20206;-65
2024/01/29 08:53:03;;;;;;;6.07;3.40;;;;;;;;;;5137030;27;20213;-65
2024/01/29 08:55:30;;;;;;;5.07;3.30;;;;;;;;;;5136659;27;20229;-65
2024/01/29 08:57:58;;;;;;;5.45;3.17;;;;;;;;;;5137526;27;20206;-65
2024/01/29 09:00:26;;;;;;;4.18;2.88;;;;;;;;;;5136983;27;20202;-65
2024/01/29 09:02:54;;;;;;;4.68;3.03;;;;;;;;;;5135870;27;20213;-65
2024/01/29 09:05:22;;;;;;;3.83;2.83;;;;;;;;;;5136285;27;20262;-65
2024/01/29 09:07:49;;;;;;;5.15;3.17;;;;;;;;;;5136880;27;20257;-65
2024/01/29 09:10:16;;;;;;;4.32;3.20;;;;;;;;;;5137100;27;20581;-65
2024/01/29 09:12:44;;;;;;;4.88;3.17;;;;;;;;;;5136421;27;20201;-65
2024/01/29 09:15:12;;;;;;;4.45;3.13;;;;;;;;;;5137364;27;20220;-65
2024/01/29 09:17:41;;;;;;;5.30;3.10;;;;;;;;;;5136878;27;20212;-65
2024/01/29 09:20:09;;;;;;;3.97;2.83;;;;;;;;;;5136132;27;20202;-65
2024/01/29 09:22:36;;;;;;;4.32;2.97;;;;;;;;;;5136078;27;20202;-65
2024/01/29 09:25:04;;;;;;;4.88;2.83;;;;;;;;;;5136483;27;20210;-65
2024/01/29 09:27:31;;;;;;;4.25;2.80;;;;;;;;;;5136306;27;20237;-65
2024/01/29 09:30:00;;;;;;;4.80;3.08;;;;;;;;;;5136375;27;20217;-65
2024/01/29 09:32:27;;;;;;;3.95;2.70;;;;;;;;;;5135857;27;20217;-65
2024/01/29 09:34:56;;;;;;;3.22;2.90;;;;;;;;;;5136166;27;20221;-65
2024/01/29 09:37:23;;;;;;;3.28;2.40;;;;;;;;;;5136468;27;20198;-65
2024/01/29 09:39:53;;;;;;;3.83;3.08;;;;;;;;;;5136854;27;20213;-65
2024/01/29 09:42:20;;;;;;;3.42;2.67;;;;;;;;;;5136188;27;20567;-65
2024/01/29 09:44:49;;;;;;;4.35;3.13;;;;;;;;;;5135928;27;20290;-65
2024/01/29 09:47:16;;;;;;;3.53;3.00;;;;;;;;;;5135862;27;20281;-65
2024/01/29 09:49:44;;;;;;;3.08;2.60;;;;;;;;;;5136912;27;20221;-65
2024/01/29 09:52:13;;;;;;;3.50;2.90;;;;;;;;;;5136297;27;20234;-64
2024/01/29 09:54:41;;;;;;;4.93;3.22;;;;;;;;;;5136043;27;20209;-64
2024/01/29 09:57:11;;;;;;;4.18;2.63;;;;;;;;;;5135870;27;20297;-64
2024/01/29 09:59:38;;;;;;;2.72;2.40;;;;;;;;;;5135773;28;20216;-64
2024/01/29 10:02:06;;;;;;;3.53;2.70;;;;;;;;;;5136210;28;20194;-64
2024/01/29 10:04:33;;;;;;;3.67;2.78;;;;;;;;;;5135787;28;20234;-65
2024/01/29 10:07:00;;;;;;;4.72;2.72;;;;;;;;;;5136721;28;20325;-65
2024/01/29 10:09:30;;;;;;;3.17;2.50;;;;;;;;;;5137438;28;20312;-65
2024/01/29 10:11:57;;;;;;;3.22;2.65;;;;;;;;;;5136310;28;20609;-65
2024/01/29 10:14:24;;;;;;;3.53;2.90;;;;;;;;;;5139388;27;20213;-65
2024/01/29 10:16:52;;;;;;;2.60;2.28;;;;;;;;;;5140729;27;20203;-65
2024/01/29 10:19:19;;;;;;;3.33;2.53;;;;;;;;;;5141521;27;20308;-65
2024/01/29 10:21:47;;;;;;;3.83;2.65;;;;;;;;;;5141110;27;20202;-65
2024/01/29 10:24:15;;;;;;;3.35;2.78;;;;;;;;;;5140725;27;20566;-65
2024/01/29 10:26:45;;;;;;;3.70;2.28;;;;;;;;;;5140473;27;20232;-65
2024/01/29 10:29:15;;;;;;;3.08;2.63;;;;;;;;;;5140315;27;20212;-65
2024/01/29 10:31:43;;;;;;;3.35;2.60;;;;;;;;;;5140478;27;20214;-64
2024/01/29 10:34:10;;;;;;;3.53;2.70;;;;;;;;;;5140745;27;20263;-64
2024/01/29 10:36:40;;;;;;;2.90;2.50;;;;;;;;;;5140625;27;20266;-64
2024/01/29 10:39:08;;;;;;;3.60;2.65;;;;;;;;;;5139622;27;20210;-64
2024/01/29 10:41:36;;;;;;;4.30;2.55;;;;;;;;;;5139902;27;20202;-64
2024/01/29 10:44:06;;;;;;;2.45;2.20;;;;;;;;;;5139617;27;20210;-66
2024/01/29 10:46:36;;;;;;;2.70;2.30;;;;;;;;;;5140763;27;20206;-65
2024/01/29 10:49:04;;;;;;;3.25;2.45;;;;;;;;;;5140469;27;20213;-65
2024/01/29 10:51:33;;;;;;;2.95;2.22;;;;;;;;;;5140286;27;20212;-65
2024/01/29 10:54:01;;;;;;;3.90;2.50;;;;;;;;;;5140697;27;20263;-65
2024/01/29 10:56:29;;;;;;;2.85;2.38;;;;;;;;;;5139860;27;20282;-65
2024/01/29 10:58:58;;;;;;;4.00;2.70;;;;;;;;;;5140282;27;20220;-64
2024/01/29 11:01:27;;;;;;;3.80;2.53;;;;;;;;;;5140505;27;20618;-65
2024/01/29 11:03:55;;;;;;;3.88;2.20;;;;;;;;;;5139721;27;20206;-65
2024/01/29 11:06:26;;;;;;;3.17;2.15;;;;;;;;;;5139912;27;20226;-65
2024/01/29 11:08:55;;;;;;;3.08;2.28;;;;;;;;;;5139351;27;20205;-64
2024/01/29 11:11:25;;;;;;;4.40;2.50;;;;;;;;;;5139613;27;20240;-65
2024/01/29 11:13:52;;;;;;;2.90;2.33;;;;;;;;;;5140070;27;20256;-64
2024/01/29 11:16:20;;;;;;;2.80;2.28;;;;;;;;;;5139604;27;20205;-65
2024/01/29 11:18:49;;;;;;;3.08;2.10;;;;;;;;;;5139729;27;20504;-64
2024/01/29 11:21:17;;;;;;;2.53;2.33;;;;;;;;;;5139435;27;20205;-64
2024/01/29 11:23:46;;;;;;;2.58;2.00;;;;;;;;;;5139367;27;20492;-66
2024/01/29 11:26:15;;;;;;;2.97;2.28;;;;;;;;;;5138775;27;20594;-66
2024/01/29 11:28:43;;;;;;;2.78;2.30;;;;;;;;;;5138785;27;20309;-64
2024/01/29 11:31:12;;;;;;;2.40;2.20;;;;;;;;;;5139514;27;20504;-65
2024/01/29 11:33:39;;;;;;;3.00;2.22;;;;;;;;;;5139184;27;20194;-65
2024/01/29 11:36:09;;;;;;;3.45;2.35;;;;;;;;;;5138866;27;20463;-65
2024/01/29 11:38:36;;;;;;;2.75;2.08;;;;;;;;;;5139323;27;20194;-64
2024/01/29 11:41:04;;;;;;;2.72;2.22;;;;;;;;;;5138545;27;20206;-65
2024/01/29 11:43:32;;;;;;;1.98;1.77;;;;;;;;;;5139025;27;20211;-65
2024/01/29 11:45:59;;;;;;;3.00;2.20;;;;;;;;;;5138335;27;20543;-65
2024/01/29 11:48:27;;;;;;;3.55;2.42;;;;;;;;;;5138121;27;20698;-65
2024/01/29 11:50:55;;;;;;;2.38;1.88;;;;;;;;;;5138331;27;20595;-65
2024/01/29 11:53:25;;;;;;;3.22;2.05;;;;;;;;;;5137776;27;20297;-65
2024/01/29 11:55:52;;;;;;;3.05;1.95;;;;;;;;;;5139215;27;20202;-65
2024/01/29 11:58:21;;;;;;;2.30;2.10;;;;;;;;;;5138034;27;20598;-65
2024/01/29 12:00:49;;;;;;;2.50;2.05;;;;;;;;;;5138194;27;20202;-65
2024/01/29 12:03:17;;;;;;;2.83;2.08;;;;;;;;;;5137810;27;20225;-65
2024/01/29 12:05:46;;;;;;;2.50;1.83;;;;;;;;;;5137279;27;20222;-65
2024/01/29 12:08:14;;;;;;;2.40;2.10;;;;;;;;;;5137340;27;20218;-64
2024/01/29 12:10:44;;;;;;;2.08;1.88;;;;;;;;;;5133573;27;20203;-64
2024/01/29 12:13:15;;;;;;;1.73;1.60;;;;;;;;;;5138546;27;20202;-65
2024/01/29 12:15:41;;;;;;;2.15;1.95;;;;;;;;;;5138441;27;20202;-64
2024/01/29 12:18:09;;;;;;;3.15;2.10;;;;;;;;;;5137423;27;20322;-64
2024/01/29 12:20:37;;;;;;;1.70;1.60;;;;;;;;;;5137666;27;20198;-64
2024/01/29 12:23:05;;;;;;;2.30;1.70;;;;;;;;;;5138240;27;20647;-64
2024/01/29 12:25:33;;;;;;;2.30;2.03;;;;;;;;;;5137062;27;20202;-64
2024/01/29 12:28:07;;;;;;;2.10;1.90;;;;;;;;;;5136730;27;20232;-65
2024/01/29 12:30:35;;;;;;;1.98;1.77;;;;;;;;;;5137583;27;20212;-64
2024/01/29 12:33:02;;;;;;;2.13;1.75;;;;;;;;;;5136904;27;20237;-66
2024/01/29 12:35:31;;;;;;;2.88;1.90;;;;;;;;;;5137363;27;20262;-65
2024/01/29 12:38:05;;;;;;;1.75;1.63;;;;;;;;;;5135188;27;20233;-65
2024/01/29 12:40:33;;;;;;;2.40;1.70;;;;;;;;;;5137891;27;20291;-65
2024/01/29 12:43:06;;;;;;;2.75;2.00;;;;;;;;;;5137680;27;20206;-65
2024/01/29 12:45:36;;;;;;;1.77;1.60;;;;;;;;;;5137146;27;20256;-64
2024/01/29 12:48:06;;;;;;;1.73;1.60;;;;;;;;;;5137261;27;20624;-64
2024/01/29 12:50:33;;;;;;;1.75;1.65;;;;;;;;;;5136687;27;20229;-66
2024/01/29 12:53:01;;;;;;;1.70;1.60;;;;;;;;;;5136423;27;20687;-64
2024/01/29 12:55:28;;;;;;;2.22;1.83;;;;;;;;;;5136876;27;20581;-66
2024/01/29 12:57:56;;;;;;;2.20;2.00;;;;;;;;;;5136382;27;20578;-64
2024/01/29 13:00:25;;;;;;;2.28;1.58;;;;;;;;;;5137091;27;20202;-64
2024/01/29 13:02:52;;;;;;;2.25;2.05;;;;;;;;;;5136566;27;20202;-64
2024/01/29 13:05:19;;;;;;;2.00;1.80;;;;;;;;;;5137506;27;20238;-64
2024/01/29 13:07:47;;;;;;;2.28;1.83;;;;;;;;;;5137063;27;20605;-65
2024/01/29 13:10:15;;;;;;;1.80;1.65;;;;;;;;;;5137926;27;20194;-64
2024/01/29 13:12:42;;;;;;;2.33;2.10;;;;;;;;;;5136646;27;20199;-64
2024/01/29 13:15:10;;;;;;;2.10;1.48;;;;;;;;;;5137306;27;20210;-65
2024/01/29 13:17:40;;;;;;;1.92;1.70;;;;;;;;;;5136700;27;20190;-66
2024/01/29 13:20:11;;;;;;;2.22;1.95;;;;;;;;;;5137043;27;20202;-65
2024/01/29 13:22:38;;;;;;;1.88;1.60;;;;;;;;;;5136209;27;20285;-65
2024/01/29 13:25:06;;;;;;;2.42;1.80;;;;;;;;;;5136323;27;20202;-65
2024/01/29 13:27:34;;;;;;;1.65;1.50;;;;;;;;;;5137381;27;20497;-65
2024/01/29 13:30:02;;;;;;;1.60;1.35;;;;;;;;;;5135935;27;20233;-65
2024/01/29 13:32:29;;;;;;;1.67;1.50;;;;;;;;;;5135546;27;20202;-65
2024/01/29 13:34:58;;;;;;;2.97;1.55;;;;;;;;;;5136346;27;20589;-65
2024/01/29 13:37:26;;;;;;;2.38;1.42;;;;;;;;;;5136692;27;20194;-69
2024/01/29 13:39:53;;;;;;;1.60;1.50;;;;;;;;;;5136660;27;20194;-65
2024/01/29 13:42:20;;;;;;;1.70;1.60;;;;;;;;;;5135655;27;20206;-65
2024/01/29 13:44:48;;;;;;;2.30;1.48;;;;;;;;;;5135173;27;20202;-65
2024/01/29 13:47:15;;;;;;;1.60;1.40;;;;;;;;;;5135608;27;20202;-65
2024/01/29 13:49:43;;;;;;;2.20;1.52;;;;;;;;;;5135811;27;20330;-65
2024/01/29 13:52:12;;;;;;;1.70;1.60;;;;;;;;;;5135901;27;20198;-66
2024/01/29 13:54:40;;;;;;;1.92;1.73;;;;;;;;;;5136980;27;20206;-68
2024/01/29 13:57:07;;;;;;;2.72;1.80;;;;;;;;;;5135866;27;20577;-67
2024/01/29 13:59:35;;;;;;;2.40;1.65;;;;;;;;;;5135716;27;20202;-68
2024/01/29 14:02:03;;;;;;;2.22;1.65;;;;;;;;;;5136030;27;20233;-68
2024/01/29 14:04:31;;;;;;;1.77;1.35;;;;;;;;;;5136117;27;20237;-69
2024/01/29 14:06:59;;;;;;;2.30;1.60;;;;;;;;;;5136530;27;20213;-67
2024/01/29 14:09:28;;;;;;;4.10;1.52;;;;;;;;;;5135309;27;20225;-66
2024/01/29 14:11:56;;;;;;;3.65;1.42;;;;;;;;;;5135292;27;20292;-67
2024/01/29 14:14:23;;;;;;;3.95;2.00;;;;;;;;;;5135287;27;20205;-66
2024/01/29 14:16:51;;;;;;;1.90;1.42;;;;;;;;;;5135368;27;20229;-65
2024/01/29 14:19:18;;;;;;;3.30;1.48;;;;;;;;;;5135516;27;20197;-65
2024/01/29 14:21:46;;;;;;;2.13;1.40;;;;;;;;;;5135360;27;20194;-65
2024/01/29 14:24:13;;;;;;;2.75;1.40;;;;;;;;;;5135018;27;20217;-65
2024/01/29 14:26:43;;;;;;;2.03;1.60;;;;;;;;;;5135898;27;20213;-65
2024/01/29 14:29:12;;;;;;;5.20;1.63;;;;;;;;;;5135510;27;20641;-65
2024/01/29 14:31:43;;;;;;;1.80;1.50;;;;;;;;;;5136182;27;20218;-65
2024/01/29 14:34:10;;;;;;;3.50;1.40;;;;;;;;;;5135374;27;20210;-65
2024/01/29 14:36:38;;;;;;;1.50;1.02;;;;;;;;;;5136318;27;20309;-65
2024/01/29 14:39:05;;;;;;;3.95;1.40;;;;;;;;;;5135896;27;20218;-65
2024/01/29 14:41:32;;;;;;;2.67;1.30;;;;;;;;;;5135165;27;20202;-65
2024/01/29 14:44:01;;;;;;;3.13;1.30;;;;;;;;;;5135356;27;20574;-65
2024/01/29 14:46:29;;;;;;;2.35;1.55;;;;;;;;;;5135573;27;20205;-65